createdAt,value
2022-08-05T00:01:35.969Z,61.51
2022-08-05T00:04:05.211Z,61.38
2022-08-05T00:06:36.521Z,61.12
2022-08-05T00:09:05.235Z,61.17
2022-08-05T00:11:48.415Z,61.29
2022-08-05T00:14:17.941Z,61.59
2022-08-05T00:16:52.336Z,61.61
2022-08-05T00:19:24.979Z,61.14
2022-08-05T00:22:01.484Z,61.64
2022-08-05T00:24:30.989Z,61.88
2022-08-05T00:27:00.212Z,61.95
2022-08-05T00:29:37.767Z,62.05
2022-08-05T00:32:12.362Z,61.99
2022-08-05T00:35:04.686Z,62.03
2022-08-05T00:37:50.987Z,62.17
2022-08-05T00:40:27.943Z,62.04
2022-08-05T00:42:58.877Z,62.42
2022-08-05T00:45:37.946Z,62.17
2022-08-05T00:48:09.254Z,62.26
2022-08-05T00:50:38.865Z,62.41
2022-08-05T00:54:00.363Z,62.11
2022-08-05T00:56:07.903Z,62.19
2022-08-05T00:58:36.955Z,61.93
2022-08-05T01:01:08.703Z,62.05
2022-08-05T01:03:40.584Z,62.32
2022-08-05T01:06:14.170Z,62.23
2022-08-05T01:08:44.646Z,61.99
2022-08-05T01:11:33.520Z,62.06
2022-08-05T01:14:28.261Z,62.46
2022-08-05T01:17:03.251Z,63.02
2022-08-05T01:20:00.863Z,62.62
2022-08-05T01:22:57.180Z,62.63
2022-08-05T01:25:53.292Z,62.27
2022-08-05T01:28:24.570Z,62.47
2022-08-05T01:31:08.612Z,62.52
2022-08-05T01:33:49.139Z,62.67
2022-08-05T01:36:20.929Z,62.76
2022-08-05T01:38:50.005Z,62.43
2022-08-05T01:41:25.712Z,62.63
2022-08-05T01:43:54.754Z,63.10
2022-08-05T01:46:42.828Z,62.84
2022-08-05T01:49:24.101Z,63.26
2022-08-05T01:51:58.926Z,63.12
2022-08-05T01:54:46.349Z,63.20
2022-08-05T01:58:29.499Z,63.33
2022-08-05T02:00:13.003Z,62.97
2022-08-05T02:03:03.721Z,63.40
2022-08-05T02:05:35.940Z,62.95
2022-08-05T02:08:05.163Z,63.17
2022-08-05T02:10:36.684Z,62.92
2022-08-05T02:13:16.871Z,63.20
2022-08-05T02:16:01.657Z,63.43
2022-08-05T02:18:42.721Z,63.08
2022-08-05T02:21:15.556Z,62.58
2022-08-05T02:23:46.642Z,62.47
2022-08-05T02:26:22.180Z,63.01
2022-08-05T02:28:50.499Z,62.78
2022-08-05T02:31:26.645Z,62.64
2022-08-05T02:33:59.733Z,62.78
2022-08-05T02:36:31.655Z,62.68
2022-08-05T02:39:03.082Z,62.27
2022-08-05T02:41:43.304Z,62.05
2022-08-05T02:44:21.869Z,61.63
2022-08-05T02:46:58.652Z,62.00
2022-08-05T02:49:40.630Z,62.21
2022-08-05T02:52:13.643Z,62.13
2022-08-05T02:54:57.797Z,62.03
2022-08-05T02:58:09.459Z,61.97
2022-08-05T03:00:13.753Z,62.05
2022-08-05T03:02:43.967Z,62.20
2022-08-05T03:05:13.843Z,62.37
2022-08-05T03:08:00.435Z,61.57
2022-08-05T03:10:30.879Z,62.11
2022-08-05T03:15:28.130Z,62.32
2022-08-05T03:17:57.813Z,62.31
2022-08-05T03:20:25.640Z,62.35
2022-08-05T03:22:57.614Z,62.62
2022-08-05T03:25:32.612Z,62.68
2022-08-05T03:28:04.611Z,62.22
2022-08-05T03:30:34.526Z,62.86
2022-08-05T03:33:04.362Z,62.60
2022-08-05T03:35:40.738Z,62.16
2022-08-05T03:38:14.569Z,62.20
2022-08-05T03:40:45.287Z,62.67
2022-08-05T03:44:08.167Z,62.78
2022-08-05T03:46:05.455Z,62.37
2022-08-05T03:48:36.801Z,61.90
2022-08-05T03:52:39.201Z,61.80
2022-08-05T03:55:07.137Z,62.08
2022-08-05T03:56:58.949Z,61.52
2022-08-05T03:59:47.584Z,62.04
2022-08-05T04:02:38.594Z,61.89
2022-08-05T04:05:14.643Z,61.07
2022-08-05T04:07:58.501Z,61.25
2022-08-05T04:10:33.226Z,61.58
2022-08-05T04:13:07.767Z,60.86
2022-08-05T04:15:36.229Z,61.30
2022-08-05T04:18:06.682Z,60.82
2022-08-05T04:20:35.079Z,61.37
2022-08-05T04:23:02.659Z,61.05
2022-08-05T04:25:57.780Z,61.01
2022-08-05T04:28:30.702Z,61.03
2022-08-05T04:31:00.832Z,60.58
2022-08-05T04:34:17.343Z,60.67
2022-08-05T04:36:49.462Z,61.01
2022-08-05T04:39:04.880Z,60.87
2022-08-05T04:41:37.089Z,60.88
2022-08-05T04:44:09.407Z,61.06
2022-08-05T04:46:38.752Z,61.42
2022-08-05T04:49:14.383Z,61.25
2022-08-05T04:51:45.097Z,60.84
2022-08-05T04:54:14.818Z,61.33
2022-08-05T04:56:42.448Z,60.76
2022-08-05T04:59:22.400Z,60.65
2022-08-05T05:02:07.036Z,60.28
2022-08-05T05:04:50.547Z,59.92
2022-08-05T05:07:29.275Z,59.86
2022-08-05T05:09:57.651Z,60.10
2022-08-05T05:12:27.225Z,59.95
2022-08-05T05:14:55.278Z,59.27
2022-08-05T05:17:24.896Z,59.76
2022-08-05T05:20:12.875Z,59.42
2022-08-05T05:22:41.130Z,58.42
2022-08-05T05:25:16.867Z,58.22
2022-08-05T05:27:53.743Z,57.79
2022-08-05T05:30:29.783Z,57.17
2022-08-05T05:33:03.744Z,56.95
2022-08-05T05:35:48.088Z,55.37
2022-08-05T05:38:22.249Z,55.22
2022-08-05T05:40:55.921Z,54.68
2022-08-05T05:43:54.336Z,54.13
2022-08-05T05:46:15.784Z,53.15
2022-08-05T05:48:44.594Z,52.65
2022-08-05T05:51:25.806Z,52.77
2022-08-05T05:53:59.529Z,52.67
2022-08-05T05:56:32.432Z,51.70
2022-08-05T05:59:07.377Z,51.13
2022-08-05T06:01:38.892Z,50.47
2022-08-05T06:04:12.906Z,50.73
2022-08-05T06:06:47.318Z,50.22
2022-08-05T06:09:24.806Z,50.03
2022-08-05T06:11:59.633Z,49.55
2022-08-05T06:14:31.223Z,48.49
2022-08-05T06:17:02.078Z,48.44
2022-08-05T06:19:57.029Z,47.85
2022-08-05T06:22:33.656Z,48.18
2022-08-05T06:25:25.223Z,47.52
2022-08-05T06:28:09.521Z,46.96
2022-08-05T06:30:41.319Z,46.86
2022-08-05T06:33:09.988Z,46.12
2022-08-05T06:36:03.380Z,45.81
2022-08-05T06:38:35.587Z,44.70
2022-08-05T06:41:04.970Z,43.53
2022-08-05T06:43:58.189Z,42.66
2022-08-05T06:46:20.602Z,41.72
2022-08-05T06:48:58.755Z,40.76
2022-08-05T06:51:31.057Z,39.22
2022-08-05T06:54:04.012Z,37.22
2022-08-05T06:56:33.421Z,35.37
2022-08-05T06:59:08.686Z,33.89
2022-08-05T07:01:40.556Z,33.60
2022-08-05T07:04:10.213Z,32.53
2022-08-05T07:06:37.862Z,32.64
2022-08-05T07:09:05.652Z,33.76
2022-08-05T07:11:36.800Z,34.74
2022-08-05T07:14:32.269Z,34.13
2022-08-05T07:18:00.824Z,33.69
2022-08-05T07:22:42.210Z,30.25
2022-08-05T07:25:55.552Z,29.83
2022-08-05T07:28:03.939Z,28.71
2022-08-05T07:30:38.733Z,27.75
2022-08-05T07:33:15.960Z,28.04
2022-08-05T07:36:04.410Z,27.73
2022-08-05T07:38:43.703Z,27.59
2022-08-05T07:42:13.354Z,27.51
2022-08-05T07:44:14.435Z,26.43
2022-08-05T07:46:49.673Z,26.88
2022-08-05T07:49:19.536Z,27.41
2022-08-05T07:51:53.023Z,26.40
2022-08-05T07:54:31.511Z,27.22
2022-08-05T07:57:23.649Z,27.20
2022-08-05T07:59:53.643Z,27.21
2022-08-05T08:02:30.825Z,27.55
2022-08-05T08:04:59.626Z,26.33
2022-08-05T08:07:28.514Z,27.22
2022-08-05T08:09:56.990Z,27.13
2022-08-05T08:12:33.475Z,27.75
2022-08-05T08:15:14.001Z,27.36
2022-08-05T08:17:52.308Z,27.65
2022-08-05T08:20:59.751Z,28.61
2022-08-05T08:23:59.839Z,30.26
2022-08-05T08:25:59.928Z,30.73
2022-08-05T08:28:36.964Z,32.52
2022-08-05T08:31:15.136Z,33.46
2022-08-05T08:33:45.681Z,33.13
2022-08-05T08:36:47.584Z,34.13
2022-08-05T08:39:02.171Z,34.94
2022-08-05T08:41:51.989Z,35.08
2022-08-05T08:45:23.563Z,33.79
2022-08-05T08:47:47.669Z,34.56
2022-08-05T08:50:31.807Z,35.01
2022-08-05T08:52:55.948Z,35.33
2022-08-05T08:56:01.877Z,34.78
2022-08-05T08:58:12.939Z,35.27
2022-08-05T09:00:42.653Z,34.71
2022-08-05T09:03:15.882Z,35.07
2022-08-05T09:06:09.259Z,35.41
2022-08-05T09:08:32.126Z,35.21
2022-08-05T09:10:59.843Z,36.34
2022-08-05T09:13:31.796Z,35.64
2022-08-05T09:16:16.737Z,34.95
2022-08-05T09:18:44.687Z,36.07
2022-08-05T09:21:20.604Z,35.53
2022-08-05T09:24:08.784Z,35.67
2022-08-05T09:26:37.931Z,36.72
2022-08-05T09:29:08.851Z,35.20
2022-08-05T09:32:41.002Z,35.45
2022-08-05T09:34:26.143Z,36.13
2022-08-05T09:36:56.221Z,35.80
2022-08-05T09:39:39.238Z,35.92
2022-08-05T09:42:23.583Z,36.18
2022-08-05T09:44:56.691Z,35.88
2022-08-05T09:47:35.197Z,35.43
2022-08-05T09:50:38.042Z,35.25
2022-08-05T09:53:07.336Z,36.33
2022-08-05T09:55:56.403Z,35.81
2022-08-05T09:58:25.678Z,34.72
2022-08-05T10:01:14.844Z,34.98
2022-08-05T10:04:03.657Z,34.66
2022-08-05T10:06:32.409Z,35.25
2022-08-05T10:09:27.490Z,35.48
2022-08-05T10:12:30.338Z,36.50
2022-08-05T10:15:16.228Z,35.50
2022-08-05T10:18:01.713Z,35.27
2022-08-05T10:20:31.531Z,35.34
2022-08-05T10:23:01.889Z,36.40
2022-08-05T10:25:31.159Z,36.16
2022-08-05T10:28:13.360Z,34.77
2022-08-05T10:32:49.186Z,34.66
2022-08-05T10:33:35.193Z,34.77
2022-08-05T10:36:04.580Z,34.82
2022-08-05T10:38:34.208Z,34.56
2022-08-05T10:41:25.914Z,34.32
2022-08-05T10:44:18.407Z,34.34
2022-08-05T10:46:50.558Z,34.89
2022-08-05T10:49:26.789Z,34.93
2022-08-05T10:52:00.463Z,34.91
2022-08-05T10:55:02.448Z,35.55
2022-08-05T10:57:32.032Z,34.65
2022-08-05T11:00:24.375Z,34.11
2022-08-05T11:03:24.233Z,34.66
2022-08-05T11:06:14.618Z,34.64
2022-08-05T11:09:32.056Z,35.51
2022-08-05T11:12:27.154Z,32.61
2022-08-05T11:15:19.928Z,34.06
2022-08-05T11:17:58.675Z,33.35
2022-08-05T11:20:39.244Z,32.93
2022-08-05T11:24:02.742Z,33.67
2022-08-05T11:26:28.954Z,33.07
2022-08-05T11:29:12.789Z,33.15
2022-08-05T11:31:54.138Z,33.29
2022-08-05T11:34:39.505Z,33.15
2022-08-05T11:38:36.741Z,33.50
2022-08-05T11:40:00.721Z,33.64
2022-08-05T11:42:37.911Z,33.45
2022-08-05T11:45:23.430Z,33.71
2022-08-05T11:47:57.947Z,35.05
2022-08-05T11:50:26.666Z,35.00
2022-08-05T11:52:57.962Z,33.71
2022-08-05T11:55:32.014Z,33.46
2022-08-05T11:58:10.385Z,32.50
2022-08-05T12:00:41.547Z,33.51
2022-08-05T12:03:28.386Z,33.63
2022-08-05T12:06:03.089Z,33.10
2022-08-05T12:08:39.470Z,33.64
2022-08-05T12:11:23.052Z,33.94
2022-08-05T12:14:10.099Z,32.92
2022-08-05T12:16:40.217Z,33.39
2022-08-05T12:20:25.629Z,32.92
2022-08-05T12:22:01.693Z,33.21
2022-08-05T12:24:29.982Z,33.01
2022-08-05T12:26:57.756Z,32.14
2022-08-05T12:29:27.450Z,33.09
2022-08-05T12:31:58.490Z,33.35
2022-08-05T12:34:37.022Z,32.73
2022-08-05T12:37:16.991Z,35.33
2022-08-05T12:39:51.044Z,34.10
2022-08-05T12:42:20.946Z,33.47
2022-08-05T12:44:49.199Z,32.29
2022-08-05T12:47:30.942Z,31.37
2022-08-05T12:50:03.629Z,32.56
2022-08-05T12:52:42.027Z,33.80
2022-08-05T12:55:22.323Z,31.08
2022-08-05T12:58:49.608Z,31.67
2022-08-05T13:02:03.767Z,32.31
2022-08-05T13:03:34.356Z,33.17
2022-08-05T13:06:08.098Z,34.50
2022-08-05T13:08:40.311Z,31.94
2022-08-05T13:11:08.538Z,33.67
2022-08-05T13:14:06.642Z,32.32
2022-08-05T13:16:27.821Z,32.25
2022-08-05T13:18:57.968Z,31.72
2022-08-05T13:21:28.489Z,32.63
2022-08-05T13:24:51.427Z,32.23
2022-08-05T13:27:04.913Z,31.48
2022-08-05T13:29:38.936Z,31.81
2022-08-05T13:32:33.081Z,32.34
2022-08-05T13:35:03.071Z,33.92
2022-08-05T13:37:34.502Z,33.11
2022-08-05T13:40:16.358Z,32.55
2022-08-05T13:42:47.935Z,32.51
2022-08-05T13:45:23.425Z,31.03
2022-08-05T13:48:08.452Z,32.33
2022-08-05T13:50:37.522Z,31.44
2022-08-05T13:53:05.060Z,31.29
2022-08-05T13:55:42.004Z,30.62
2022-08-05T13:58:30.205Z,30.65
2022-08-05T14:00:58.990Z,31.27
2022-08-05T14:03:28.327Z,31.64
2022-08-05T14:06:25.450Z,31.07
2022-08-05T14:08:44.291Z,32.42
2022-08-05T14:11:20.709Z,32.01
2022-08-05T14:13:49.600Z,32.70
2022-08-05T14:16:23.168Z,31.76
2022-08-05T14:18:51.370Z,31.71
2022-08-05T14:22:08.435Z,31.25
2022-08-05T14:24:09.934Z,31.93
2022-08-05T14:26:56.427Z,33.69
2022-08-05T14:29:26.280Z,32.78
2022-08-05T14:32:02.910Z,32.93
2022-08-05T14:34:40.814Z,33.77
2022-08-05T14:37:09.364Z,34.43
2022-08-05T14:39:49.545Z,35.11
2022-08-05T14:42:25.020Z,33.73
2022-08-05T14:44:52.930Z,32.22
2022-08-05T14:48:03.602Z,32.07
2022-08-05T14:50:18.514Z,31.57
2022-08-05T14:52:53.623Z,32.15
2022-08-05T14:55:28.773Z,31.83
2022-08-05T14:58:11.112Z,32.51
2022-08-05T15:00:59.417Z,33.01
2022-08-05T15:03:34.075Z,31.49
2022-08-05T15:06:14.797Z,31.52
2022-08-05T15:08:59.725Z,31.05
2022-08-05T15:11:52.745Z,31.75
2022-08-05T15:14:34.734Z,31.94
2022-08-05T15:17:14.639Z,31.52
2022-08-05T15:19:57.507Z,30.51
2022-08-05T15:22:27.120Z,33.32
2022-08-05T15:24:56.878Z,32.45
2022-08-05T15:27:25.458Z,32.40
2022-08-05T15:29:56.601Z,32.34
2022-08-05T15:32:28.585Z,32.28
2022-08-05T15:34:57.463Z,32.39
2022-08-05T15:38:32.815Z,31.78
2022-08-05T15:41:04.233Z,31.41
2022-08-05T15:43:12.581Z,31.00
2022-08-05T15:45:46.917Z,31.18
2022-08-05T15:48:15.344Z,30.37
2022-08-05T15:50:43.568Z,31.13
2022-08-05T15:53:14.507Z,30.43
2022-08-05T15:56:02.333Z,31.20
2022-08-05T15:58:37.064Z,30.85
2022-08-05T16:01:16.424Z,30.77
2022-08-05T16:03:50.385Z,30.70
2022-08-05T16:06:19.586Z,31.23
2022-08-05T16:08:50.855Z,31.05
2022-08-05T16:11:42.586Z,31.28
2022-08-05T16:14:09.157Z,31.75
2022-08-05T16:16:37.156Z,31.70
2022-08-05T16:19:05.193Z,31.93
2022-08-05T16:21:58.563Z,31.97
2022-08-05T16:24:36.122Z,32.36
2022-08-05T16:27:08.459Z,32.15
2022-08-05T16:29:37.318Z,32.53
2022-08-05T16:32:09.756Z,32.14
2022-08-05T16:34:39.390Z,31.93
2022-08-05T16:38:00.400Z,32.57
2022-08-05T16:40:06.496Z,32.38
2022-08-05T16:42:36.018Z,32.86
2022-08-05T16:46:02.802Z,32.69
2022-08-05T16:47:54.399Z,33.16
2022-08-05T16:50:25.189Z,33.65
2022-08-05T16:52:52.831Z,34.63
2022-08-05T16:55:24.617Z,34.27
2022-08-05T16:57:53.392Z,34.44
2022-08-05T17:00:34.010Z,34.32
2022-08-05T17:03:03.981Z,34.76
2022-08-05T17:05:41.035Z,34.92
2022-08-05T17:08:13.393Z,34.97
2022-08-05T17:10:41.765Z,35.53
2022-08-05T17:13:17.115Z,35.43
2022-08-05T17:15:55.613Z,35.39
2022-08-05T17:18:35.185Z,36.05
2022-08-05T17:21:02.938Z,35.38
2022-08-05T17:24:05.103Z,35.76
2022-08-05T17:26:20.114Z,36.66
2022-08-05T17:28:47.751Z,36.62
2022-08-05T17:31:24.711Z,36.57
2022-08-05T17:34:03.248Z,37.12
2022-08-05T17:36:36.077Z,36.88
2022-08-05T17:39:23.771Z,37.00
2022-08-05T17:42:17.768Z,37.63
2022-08-05T17:44:39.294Z,37.41
2022-08-05T17:47:06.918Z,38.39
2022-08-05T17:49:51.961Z,38.23
2022-08-05T17:52:22.661Z,38.66
2022-08-05T17:54:59.273Z,39.23
2022-08-05T17:57:27.921Z,38.96
2022-08-05T18:00:03.611Z,39.14
2022-08-05T18:02:34.416Z,39.17
2022-08-05T18:05:06.464Z,39.28
2022-08-05T18:07:41.332Z,39.31
2022-08-05T18:10:11.709Z,39.61
2022-08-05T18:12:48.807Z,39.04
2022-08-05T18:15:16.527Z,39.03
2022-08-05T18:17:59.599Z,39.16
2022-08-05T18:20:32.541Z,38.94
2022-08-05T18:23:09.391Z,39.12
2022-08-05T18:25:44.858Z,39.65
2022-08-05T18:28:16.305Z,39.36
2022-08-05T18:30:51.052Z,39.78
2022-08-05T18:33:22.991Z,39.26
2022-08-05T18:36:04.075Z,39.45
2022-08-05T18:38:36.298Z,39.56
2022-08-05T18:41:55.476Z,39.54
2022-08-05T18:43:53.461Z,39.34
2022-08-05T18:46:21.703Z,39.87
2022-08-05T18:48:54.010Z,39.63
2022-08-05T18:52:04.714Z,39.88
2022-08-05T18:54:31.355Z,40.08
2022-08-05T18:57:01.074Z,39.76
2022-08-05T18:59:43.352Z,39.98
2022-08-05T19:02:26.938Z,40.56
2022-08-05T19:05:02.642Z,40.71
2022-08-05T19:07:50.134Z,40.48
2022-08-05T19:10:26.481Z,40.47
2022-08-05T19:12:57.149Z,40.78
2022-08-05T19:15:57.237Z,40.89
2022-08-05T19:18:21.929Z,40.88
2022-08-05T19:20:54.708Z,41.28
2022-08-05T19:24:05.457Z,40.55
2022-08-05T19:26:11.900Z,40.90
2022-08-05T19:28:42.291Z,40.87
2022-08-05T19:31:13.269Z,41.02
2022-08-05T19:33:47.895Z,40.84
2022-08-05T19:36:29.329Z,40.91
2022-08-05T19:39:01.486Z,41.42
2022-08-05T19:41:34.710Z,41.16
2022-08-05T19:44:19.307Z,41.77
2022-08-05T19:46:47.475Z,41.90
2022-08-05T19:49:18.554Z,42.60
2022-08-05T19:52:08.324Z,42.66
2022-08-05T19:54:35.453Z,42.90
2022-08-05T19:57:08.631Z,42.58
2022-08-05T19:59:55.577Z,42.89
2022-08-05T20:02:31.269Z,42.73
2022-08-05T20:04:59.729Z,42.80
2022-08-05T20:07:46.887Z,43.39
2022-08-05T20:10:17.416Z,43.25
2022-08-05T20:12:49.249Z,43.73
2022-08-05T20:15:23.011Z,43.44
2022-08-05T20:18:10.017Z,44.26
2022-08-05T20:20:56.733Z,44.10
2022-08-05T20:23:40.480Z,44.45
2022-08-05T20:26:15.434Z,44.61
2022-08-05T20:28:49.785Z,44.79
2022-08-05T20:31:21.867Z,45.12
2022-08-05T20:33:56.152Z,45.22
2022-08-05T20:36:24.384Z,45.37
2022-08-05T20:38:57.713Z,45.45
2022-08-05T20:41:43.537Z,45.46
2022-08-05T20:44:18.566Z,45.39
2022-08-05T20:46:58.003Z,45.00
2022-08-05T20:49:25.887Z,45.76
2022-08-05T20:51:55.308Z,45.78
2022-08-05T20:54:42.916Z,45.80
2022-08-05T20:57:42.095Z,45.90
2022-08-05T21:00:20.639Z,45.92
2022-08-05T21:02:56.942Z,46.57
2022-08-05T21:05:25.151Z,46.34
2022-08-05T21:07:52.842Z,46.46
2022-08-05T21:10:21.574Z,46.75
2022-08-05T21:13:08.926Z,47.02
2022-08-05T21:15:37.044Z,47.71
2022-08-05T21:18:05.088Z,48.61
2022-08-05T21:20:34.174Z,48.58
2022-08-05T21:23:02.984Z,48.94
2022-08-05T21:28:03.299Z,49.61
2022-08-05T21:30:31.730Z,49.79
2022-08-05T21:33:01.772Z,49.83
2022-08-05T21:35:55.515Z,49.94
2022-08-05T21:38:19.183Z,50.62
2022-08-05T21:40:46.785Z,50.48
2022-08-05T21:43:17.685Z,51.01
2022-08-05T21:45:57.882Z,51.17
2022-08-05T21:48:28.929Z,51.41
2022-08-05T21:50:57.328Z,51.67
2022-08-05T21:53:27.749Z,51.97
2022-08-05T21:56:09.744Z,51.99
2022-08-05T21:58:48.440Z,52.17
2022-08-05T22:01:26.346Z,52.00
2022-08-05T22:03:54.242Z,52.19
2022-08-05T22:06:35.095Z,52.32
2022-08-05T22:09:15.066Z,53.12
2022-08-05T22:11:46.903Z,52.91
2022-08-05T22:14:33.427Z,53.30
2022-08-05T22:17:03.780Z,53.00
2022-08-05T22:20:02.015Z,53.76
2022-08-05T22:22:27.812Z,54.01
2022-08-05T22:25:18.109Z,54.08
2022-08-05T22:28:08.220Z,54.33
2022-08-05T22:30:53.534Z,54.58
2022-08-05T22:33:57.945Z,55.29
2022-08-05T22:36:14.610Z,54.92
2022-08-05T22:38:48.203Z,55.33
2022-08-05T22:41:26.280Z,55.27
2022-08-05T22:44:08.739Z,55.88
2022-08-05T22:46:39.439Z,55.85
2022-08-05T22:49:46.237Z,55.96
2022-08-05T22:52:04.364Z,56.39
2022-08-05T22:54:36.689Z,56.18
2022-08-05T22:57:07.430Z,56.48
2022-08-05T22:59:44.066Z,56.80
2022-08-05T23:02:17.607Z,56.98
2022-08-05T23:04:52.210Z,57.72
2022-08-05T23:07:22.737Z,57.47
2022-08-05T23:09:58.471Z,57.66
2022-08-05T23:12:32.355Z,57.94
2022-08-05T23:15:03.044Z,58.15
2022-08-05T23:17:37.546Z,58.65
2022-08-05T23:20:20.876Z,58.73
2022-08-05T23:22:56.104Z,59.03
2022-08-05T23:25:51.003Z,59.10
2022-08-05T23:28:12.204Z,59.55
2022-08-05T23:30:43.591Z,59.94
2022-08-05T23:33:22.026Z,59.95
2022-08-05T23:35:56.165Z,60.13
2022-08-05T23:38:26.117Z,60.57
2022-08-05T23:40:54.383Z,60.74
2022-08-05T23:43:24.885Z,61.20
2022-08-05T23:46:20.037Z,61.46
2022-08-05T23:49:00.746Z,61.61
2022-08-05T23:51:52.714Z,62.00
2022-08-05T23:54:30.355Z,62.29
2022-08-05T23:57:05.028Z,62.91
2022-08-05T23:59:37.648Z,62.97
